sensor_id;sensor_type;location;lat;lon;timestamp;P1;durP1;ratioP1;P2;durP2;ratioP2
1837;SDS011;918;50.796;6.772;2024-01-06T00:02:14;3.17;;;2.97;;
1837;SDS011;918;50.796;6.772;2024-01-06T00:04:39;3.50;;;3.30;;
1837;SDS011;918;50.796;6.772;2024-01-06T00:07:04;2.63;;;2.53;;
1837;SDS011;918;50.796;6.772;2024-01-06T00:09:29;3.40;;;3.10;;
1837;SDS011;918;50.796;6.772;2024-01-06T00:11:55;3.33;;;3.13;;
1837;SDS011;918;50.796;6.772;2024-01-06T00:14:20;3.50;;;3.27;;
1837;SDS011;918;50.796;6.772;2024-01-06T00:16:45;3.13;;;2.93;;
1837;SDS011;918;50.796;6.772;2024-01-06T00:19:10;3.70;;;3.50;;
1837;SDS011;918;50.796;6.772;2024-01-06T00:21:36;3.90;;;3.60;;
1837;SDS011;918;50.796;6.772;2024-01-06T00:24:01;3.60;;;3.40;;
1837;SDS011;918;50.796;6.772;2024-01-06T00:26:26;3.93;;;3.50;;
1837;SDS011;918;50.796;6.772;2024-01-06T00:28:52;5.30;;;3.53;;
1837;SDS011;918;50.796;6.772;2024-01-06T00:31:17;3.37;;;3.17;;
1837;SDS011;918;50.796;6.772;2024-01-06T00:33:43;4.33;;;3.83;;
1837;SDS011;918;50.796;6.772;2024-01-06T00:36:08;3.40;;;3.10;;
1837;SDS011;918;50.796;6.772;2024-01-06T00:38:34;3.40;;;3.10;;
1837;SDS011;918;50.796;6.772;2024-01-06T00:41:00;3.30;;;3.10;;
1837;SDS011;918;50.796;6.772;2024-01-06T00:43:25;3.57;;;3.27;;
1837;SDS011;918;50.796;6.772;2024-01-06T00:45:50;3.33;;;3.03;;
1837;SDS011;918;50.796;6.772;2024-01-06T00:48:15;3.00;;;2.80;;
1837;SDS011;918;50.796;6.772;2024-01-06T00:50:41;2.90;;;2.70;;
1837;SDS011;918;50.796;6.772;2024-01-06T00:53:06;3.50;;;3.20;;
1837;SDS011;918;50.796;6.772;2024-01-06T00:55:31;3.50;;;3.20;;
1837;SDS011;918;50.796;6.772;2024-01-06T00:57:56;4.27;;;2.70;;
1837;SDS011;918;50.796;6.772;2024-01-06T01:00:22;3.20;;;2.90;;
1837;SDS011;918;50.796;6.772;2024-01-06T01:02:47;4.10;;;3.50;;
1837;SDS011;918;50.796;6.772;2024-01-06T01:05:13;3.70;;;3.40;;
1837;SDS011;918;50.796;6.772;2024-01-06T01:07:38;4.87;;;4.37;;
1837;SDS011;918;50.796;6.772;2024-01-06T01:10:03;5.70;;;4.27;;
1837;SDS011;918;50.796;6.772;2024-01-06T01:12:29;5.60;;;4.00;;
1837;SDS011;918;50.796;6.772;2024-01-06T01:14:55;4.10;;;3.30;;
1837;SDS011;918;50.796;6.772;2024-01-06T01:17:20;3.20;;;2.77;;
1837;SDS011;918;50.796;6.772;2024-01-06T01:19:46;2.93;;;2.70;;
1837;SDS011;918;50.796;6.772;2024-01-06T01:22:11;3.13;;;2.93;;
1837;SDS011;918;50.796;6.772;2024-01-06T01:24:37;2.47;;;2.27;;
1837;SDS011;918;50.796;6.772;2024-01-06T01:27:02;2.80;;;2.60;;
1837;SDS011;918;50.796;6.772;2024-01-06T01:29:27;3.53;;;2.97;;
1837;SDS011;918;50.796;6.772;2024-01-06T01:31:53;3.40;;;3.10;;
1837;SDS011;918;50.796;6.772;2024-01-06T01:34:18;3.80;;;3.50;;
1837;SDS011;918;50.796;6.772;2024-01-06T01:36:43;3.93;;;3.63;;
1837;SDS011;918;50.796;6.772;2024-01-06T01:39:08;3.77;;;3.47;;
1837;SDS011;918;50.796;6.772;2024-01-06T01:41:34;5.33;;;4.83;;
1837;SDS011;918;50.796;6.772;2024-01-06T01:44:00;4.63;;;4.23;;
1837;SDS011;918;50.796;6.772;2024-01-06T01:46:25;4.10;;;3.80;;
1837;SDS011;918;50.796;6.772;2024-01-06T01:48:54;4.37;;;4.07;;
1837;SDS011;918;50.796;6.772;2024-01-06T01:51:20;4.83;;;4.50;;
1837;SDS011;918;50.796;6.772;2024-01-06T01:53:46;5.83;;;5.23;;
1837;SDS011;918;50.796;6.772;2024-01-06T01:56:11;5.87;;;5.37;;
1837;SDS011;918;50.796;6.772;2024-01-06T01:58:36;6.53;;;5.93;;
1837;SDS011;918;50.796;6.772;2024-01-06T02:01:02;5.23;;;4.87;;
1837;SDS011;918;50.796;6.772;2024-01-06T02:03:27;6.27;;;5.70;;
1837;SDS011;918;50.796;6.772;2024-01-06T02:05:55;7.10;;;6.40;;
1837;SDS011;918;50.796;6.772;2024-01-06T02:08:20;6.80;;;6.20;;
1837;SDS011;918;50.796;6.772;2024-01-06T02:10:45;7.20;;;6.60;;
1837;SDS011;918;50.796;6.772;2024-01-06T02:13:11;8.43;;;7.53;;
1837;SDS011;918;50.796;6.772;2024-01-06T02:15:36;7.83;;;7.13;;
1837;SDS011;918;50.796;6.772;2024-01-06T02:18:02;8.00;;;7.30;;
1837;SDS011;918;50.796;6.772;2024-01-06T02:20:28;7.30;;;6.60;;
1837;SDS011;918;50.796;6.772;2024-01-06T02:22:55;8.90;;;8.10;;
1837;SDS011;918;50.796;6.772;2024-01-06T02:25:22;9.53;;;7.97;;
1837;SDS011;918;50.796;6.772;2024-01-06T02:27:47;8.90;;;8.07;;
1837;SDS011;918;50.796;6.772;2024-01-06T02:30:12;10.30;;;9.10;;
1837;SDS011;918;50.796;6.772;2024-01-06T02:32:38;8.80;;;8.00;;
1837;SDS011;918;50.796;6.772;2024-01-06T02:35:03;9.67;;;8.77;;
1837;SDS011;918;50.796;6.772;2024-01-06T02:37:28;9.43;;;8.53;;
1837;SDS011;918;50.796;6.772;2024-01-06T02:39:54;9.43;;;8.60;;
1837;SDS011;918;50.796;6.772;2024-01-06T02:42:19;10.27;;;9.27;;
1837;SDS011;918;50.796;6.772;2024-01-06T02:44:44;10.47;;;9.47;;
1837;SDS011;918;50.796;6.772;2024-01-06T02:47:10;9.93;;;9.03;;
1837;SDS011;918;50.796;6.772;2024-01-06T02:49:35;11.53;;;10.43;;
1837;SDS011;918;50.796;6.772;2024-01-06T02:52:00;10.33;;;9.23;;
1837;SDS011;918;50.796;6.772;2024-01-06T02:54:25;10.83;;;9.57;;
1837;SDS011;918;50.796;6.772;2024-01-06T02:56:50;11.20;;;10.20;;
1837;SDS011;918;50.796;6.772;2024-01-06T02:59:16;10.47;;;9.37;;
1837;SDS011;918;50.796;6.772;2024-01-06T03:01:41;11.10;;;10.00;;
1837;SDS011;918;50.796;6.772;2024-01-06T03:04:06;10.07;;;9.07;;
1837;SDS011;918;50.796;6.772;2024-01-06T03:06:32;10.70;;;9.20;;
1837;SDS011;918;50.796;6.772;2024-01-06T03:08:57;9.63;;;8.30;;
1837;SDS011;918;50.796;6.772;2024-01-06T03:11:23;12.10;;;11.00;;
1837;SDS011;918;50.796;6.772;2024-01-06T03:13:48;11.13;;;10.10;;
1837;SDS011;918;50.796;6.772;2024-01-06T03:16:13;10.67;;;9.57;;
1837;SDS011;918;50.796;6.772;2024-01-06T03:18:39;10.20;;;9.20;;
1837;SDS011;918;50.796;6.772;2024-01-06T03:21:04;12.10;;;10.90;;
1837;SDS011;918;50.796;6.772;2024-01-06T03:23:29;11.00;;;9.90;;
1837;SDS011;918;50.796;6.772;2024-01-06T03:25:54;13.27;;;9.70;;
1837;SDS011;918;50.796;6.772;2024-01-06T03:28:19;10.17;;;9.23;;
1837;SDS011;918;50.796;6.772;2024-01-06T03:30:45;11.63;;;10.27;;
1837;SDS011;918;50.796;6.772;2024-01-06T03:33:10;11.77;;;10.30;;
1837;SDS011;918;50.796;6.772;2024-01-06T03:35:37;12.33;;;11.17;;
1837;SDS011;918;50.796;6.772;2024-01-06T03:38:02;12.60;;;11.40;;
1837;SDS011;918;50.796;6.772;2024-01-06T03:40:27;13.07;;;11.50;;
1837;SDS011;918;50.796;6.772;2024-01-06T03:42:53;14.10;;;12.70;;
1837;SDS011;918;50.796;6.772;2024-01-06T03:45:18;12.83;;;11.63;;
1837;SDS011;918;50.796;6.772;2024-01-06T03:47:44;13.47;;;12.17;;
1837;SDS011;918;50.796;6.772;2024-01-06T03:50:09;13.07;;;11.77;;
1837;SDS011;918;50.796;6.772;2024-01-06T03:52:34;14.60;;;13.10;;
1837;SDS011;918;50.796;6.772;2024-01-06T03:54:59;13.20;;;11.83;;
1837;SDS011;918;50.796;6.772;2024-01-06T03:57:25;17.80;;;13.20;;
1837;SDS011;918;50.796;6.772;2024-01-06T03:59:50;18.43;;;14.10;;
1837;SDS011;918;50.796;6.772;2024-01-06T04:02:15;18.97;;;17.07;;
1837;SDS011;918;50.796;6.772;2024-01-06T04:04:41;19.50;;;15.93;;
1837;SDS011;918;50.796;6.772;2024-01-06T04:07:06;17.50;;;14.90;;
1837;SDS011;918;50.796;6.772;2024-01-06T04:09:31;19.00;;;15.00;;
1837;SDS011;918;50.796;6.772;2024-01-06T04:11:57;16.93;;;15.20;;
1837;SDS011;918;50.796;6.772;2024-01-06T04:14:22;17.53;;;15.63;;
1837;SDS011;918;50.796;6.772;2024-01-06T04:16:48;18.10;;;15.90;;
1837;SDS011;918;50.796;6.772;2024-01-06T04:19:13;20.07;;;17.87;;
1837;SDS011;918;50.796;6.772;2024-01-06T04:21:40;18.30;;;16.30;;
1837;SDS011;918;50.796;6.772;2024-01-06T04:24:05;18.90;;;16.90;;
1837;SDS011;918;50.796;6.772;2024-01-06T04:26:30;18.73;;;15.20;;
1837;SDS011;918;50.796;6.772;2024-01-06T04:28:56;21.37;;;17.87;;
1837;SDS011;918;50.796;6.772;2024-01-06T04:31:21;22.23;;;16.57;;
1837;SDS011;918;50.796;6.772;2024-01-06T04:33:46;18.67;;;16.77;;
1837;SDS011;918;50.796;6.772;2024-01-06T04:36:11;19.40;;;16.47;;
1837;SDS011;918;50.796;6.772;2024-01-06T04:38:36;18.00;;;16.10;;
1837;SDS011;918;50.796;6.772;2024-01-06T04:41:02;19.10;;;15.47;;
1837;SDS011;918;50.796;6.772;2024-01-06T04:43:27;20.60;;;15.63;;
1837;SDS011;918;50.796;6.772;2024-01-06T04:45:53;16.30;;;14.40;;
1837;SDS011;918;50.796;6.772;2024-01-06T04:48:18;20.83;;;15.40;;
1837;SDS011;918;50.796;6.772;2024-01-06T04:50:43;21.17;;;17.40;;
1837;SDS011;918;50.796;6.772;2024-01-06T04:53:08;17.83;;;15.07;;
1837;SDS011;918;50.796;6.772;2024-01-06T04:55:34;18.27;;;15.57;;
1837;SDS011;918;50.796;6.772;2024-01-06T04:57:59;17.63;;;13.90;;
1837;SDS011;918;50.796;6.772;2024-01-06T05:00:24;18.97;;;15.70;;
1837;SDS011;918;50.796;6.772;2024-01-06T05:02:50;19.40;;;14.43;;
1837;SDS011;918;50.796;6.772;2024-01-06T05:05:15;15.83;;;14.13;;
1837;SDS011;918;50.796;6.772;2024-01-06T05:07:41;15.43;;;13.73;;
1837;SDS011;918;50.796;6.772;2024-01-06T05:10:06;16.43;;;14.53;;
1837;SDS011;918;50.796;6.772;2024-01-06T05:12:32;20.07;;;15.10;;
1837;SDS011;918;50.796;6.772;2024-01-06T05:14:57;16.83;;;15.10;;
1837;SDS011;918;50.796;6.772;2024-01-06T05:17:22;19.23;;;14.10;;
1837;SDS011;918;50.796;6.772;2024-01-06T05:19:48;17.03;;;13.90;;
1837;SDS011;918;50.796;6.772;2024-01-06T05:22:13;15.90;;;14.07;;
1837;SDS011;918;50.796;6.772;2024-01-06T05:24:38;17.97;;;13.93;;
1837;SDS011;918;50.796;6.772;2024-01-06T05:27:03;17.43;;;15.43;;
1837;SDS011;918;50.796;6.772;2024-01-06T05:29:29;18.70;;;14.40;;
1837;SDS011;918;50.796;6.772;2024-01-06T05:31:54;18.27;;;15.17;;
1837;SDS011;918;50.796;6.772;2024-01-06T05:34:20;20.83;;;17.00;;
1837;SDS011;918;50.796;6.772;2024-01-06T05:36:45;18.27;;;15.37;;
1837;SDS011;918;50.796;6.772;2024-01-06T05:39:10;19.77;;;16.37;;
1837;SDS011;918;50.796;6.772;2024-01-06T05:41:39;17.43;;;14.47;;
1837;SDS011;918;50.796;6.772;2024-01-06T05:44:04;17.23;;;14.40;;
1837;SDS011;918;50.796;6.772;2024-01-06T05:46:30;18.40;;;13.60;;
1837;SDS011;918;50.796;6.772;2024-01-06T05:48:55;17.23;;;14.60;;
1837;SDS011;918;50.796;6.772;2024-01-06T05:51:21;15.73;;;13.90;;
1837;SDS011;918;50.796;6.772;2024-01-06T05:53:46;18.10;;;14.23;;
1837;SDS011;918;50.796;6.772;2024-01-06T05:56:12;16.80;;;14.30;;
1837;SDS011;918;50.796;6.772;2024-01-06T05:58:47;21.07;;;15.47;;
1837;SDS011;918;50.796;6.772;2024-01-06T06:01:13;17.90;;;14.47;;
1837;SDS011;918;50.796;6.772;2024-01-06T06:03:39;20.17;;;15.17;;
1837;SDS011;918;50.796;6.772;2024-01-06T06:06:04;22.80;;;17.37;;
1837;SDS011;918;50.796;6.772;2024-01-06T06:08:29;18.40;;;15.80;;
1837;SDS011;918;50.796;6.772;2024-01-06T06:10:55;26.10;;;17.63;;
1837;SDS011;918;50.796;6.772;2024-01-06T06:13:29;19.83;;;16.07;;
1837;SDS011;918;50.796;6.772;2024-01-06T06:15:54;19.83;;;15.80;;
1837;SDS011;918;50.796;6.772;2024-01-06T06:18:20;18.50;;;15.90;;
1837;SDS011;918;50.796;6.772;2024-01-06T06:20:45;21.23;;;16.00;;
1837;SDS011;918;50.796;6.772;2024-01-06T06:23:10;18.77;;;14.53;;
1837;SDS011;918;50.796;6.772;2024-01-06T06:25:37;17.23;;;14.27;;
1837;SDS011;918;50.796;6.772;2024-01-06T06:28:03;16.97;;;14.03;;
1837;SDS011;918;50.796;6.772;2024-01-06T06:30:29;18.63;;;14.70;;
1837;SDS011;918;50.796;6.772;2024-01-06T06:32:54;16.27;;;13.47;;
1837;SDS011;918;50.796;6.772;2024-01-06T06:35:19;19.30;;;13.97;;
1837;SDS011;918;50.796;6.772;2024-01-06T06:37:45;17.77;;;13.27;;
1837;SDS011;918;50.796;6.772;2024-01-06T06:40:10;16.87;;;14.33;;
1837;SDS011;918;50.796;6.772;2024-01-06T06:42:35;15.43;;;12.47;;
1837;SDS011;918;50.796;6.772;2024-01-06T06:45:01;17.03;;;12.60;;
1837;SDS011;918;50.796;6.772;2024-01-06T06:47:26;14.40;;;12.13;;
1837;SDS011;918;50.796;6.772;2024-01-06T06:49:51;15.77;;;12.20;;
1837;SDS011;918;50.796;6.772;2024-01-06T06:52:16;15.40;;;11.83;;
1837;SDS011;918;50.796;6.772;2024-01-06T06:54:42;16.40;;;12.53;;
1837;SDS011;918;50.796;6.772;2024-01-06T06:57:07;13.00;;;11.27;;
1837;SDS011;918;50.796;6.772;2024-01-06T06:59:32;14.20;;;11.43;;
1837;SDS011;918;50.796;6.772;2024-01-06T07:01:57;15.90;;;12.50;;
1837;SDS011;918;50.796;6.772;2024-01-06T07:04:22;14.53;;;11.33;;
1837;SDS011;918;50.796;6.772;2024-01-06T07:06:48;14.77;;;12.87;;
1837;SDS011;918;50.796;6.772;2024-01-06T07:09:13;14.80;;;11.83;;
1837;SDS011;918;50.796;6.772;2024-01-06T07:11:39;14.47;;;12.43;;
1837;SDS011;918;50.796;6.772;2024-01-06T07:14:04;21.03;;;13.17;;
1837;SDS011;918;50.796;6.772;2024-01-06T07:16:29;17.40;;;12.77;;
1837;SDS011;918;50.796;6.772;2024-01-06T07:18:54;14.80;;;12.10;;
1837;SDS011;918;50.796;6.772;2024-01-06T07:21:20;17.20;;;11.33;;
1837;SDS011;918;50.796;6.772;2024-01-06T07:23:45;14.00;;;10.83;;
1837;SDS011;918;50.796;6.772;2024-01-06T07:26:10;19.53;;;12.60;;
1837;SDS011;918;50.796;6.772;2024-01-06T07:28:36;16.27;;;12.10;;
1837;SDS011;918;50.796;6.772;2024-01-06T07:31:01;13.63;;;11.10;;
1837;SDS011;918;50.796;6.772;2024-01-06T07:33:26;14.43;;;11.40;;
1837;SDS011;918;50.796;6.772;2024-01-06T07:35:51;16.40;;;11.73;;
1837;SDS011;918;50.796;6.772;2024-01-06T07:38:17;13.50;;;11.13;;
1837;SDS011;918;50.796;6.772;2024-01-06T07:40:42;14.10;;;11.63;;
1837;SDS011;918;50.796;6.772;2024-01-06T07:43:09;16.70;;;13.53;;
1837;SDS011;918;50.796;6.772;2024-01-06T07:45:34;13.50;;;9.90;;
1837;SDS011;918;50.796;6.772;2024-01-06T07:48:00;16.30;;;12.33;;
1837;SDS011;918;50.796;6.772;2024-01-06T07:50:25;13.47;;;10.43;;
1837;SDS011;918;50.796;6.772;2024-01-06T07:52:51;17.70;;;11.70;;
1837;SDS011;918;50.796;6.772;2024-01-06T07:55:17;15.73;;;11.77;;
1837;SDS011;918;50.796;6.772;2024-01-06T07:57:43;15.37;;;12.67;;
1837;SDS011;918;50.796;6.772;2024-01-06T08:00:10;16.80;;;12.33;;
1837;SDS011;918;50.796;6.772;2024-01-06T08:02:39;14.00;;;11.43;;
1837;SDS011;918;50.796;6.772;2024-01-06T08:05:05;15.83;;;12.17;;
1837;SDS011;918;50.796;6.772;2024-01-06T08:07:31;16.40;;;12.73;;
1837;SDS011;918;50.796;6.772;2024-01-06T08:09:57;16.00;;;13.07;;
1837;SDS011;918;50.796;6.772;2024-01-06T08:12:22;15.30;;;11.63;;
1837;SDS011;918;50.796;6.772;2024-01-06T08:14:47;19.30;;;12.50;;
1837;SDS011;918;50.796;6.772;2024-01-06T08:17:13;14.97;;;11.37;;
1837;SDS011;918;50.796;6.772;2024-01-06T08:19:38;13.50;;;10.70;;
1837;SDS011;918;50.796;6.772;2024-01-06T08:22:03;12.60;;;10.20;;
1837;SDS011;918;50.796;6.772;2024-01-06T08:24:28;13.80;;;10.93;;
1837;SDS011;918;50.796;6.772;2024-01-06T08:26:54;13.00;;;10.33;;
1837;SDS011;918;50.796;6.772;2024-01-06T08:29:19;13.60;;;10.53;;
1837;SDS011;918;50.796;6.772;2024-01-06T08:31:45;11.63;;;9.53;;
1837;SDS011;918;50.796;6.772;2024-01-06T08:34:10;12.80;;;10.20;;
1837;SDS011;918;50.796;6.772;2024-01-06T08:36:35;13.07;;;10.60;;
1837;SDS011;918;50.796;6.772;2024-01-06T08:39:01;13.53;;;10.60;;
1837;SDS011;918;50.796;6.772;2024-01-06T08:41:26;13.63;;;10.30;;
1837;SDS011;918;50.796;6.772;2024-01-06T08:43:51;13.80;;;9.60;;
1837;SDS011;918;50.796;6.772;2024-01-06T08:46:16;15.60;;;11.40;;
1837;SDS011;918;50.796;6.772;2024-01-06T08:48:42;13.80;;;11.07;;
1837;SDS011;918;50.796;6.772;2024-01-06T08:51:07;14.30;;;11.27;;
1837;SDS011;918;50.796;6.772;2024-01-06T08:53:32;14.10;;;10.03;;
1837;SDS011;918;50.796;6.772;2024-01-06T08:55:57;13.60;;;10.23;;
1837;SDS011;918;50.796;6.772;2024-01-06T08:58:23;14.00;;;9.70;;
1837;SDS011;918;50.796;6.772;2024-01-06T09:00:48;13.13;;;10.80;;
1837;SDS011;918;50.796;6.772;2024-01-06T09:03:14;13.70;;;10.30;;
1837;SDS011;918;50.796;6.772;2024-01-06T09:05:39;14.80;;;11.73;;
1837;SDS011;918;50.796;6.772;2024-01-06T09:08:04;13.63;;;9.53;;
1837;SDS011;918;50.796;6.772;2024-01-06T09:10:30;12.80;;;10.93;;
1837;SDS011;918;50.796;6.772;2024-01-06T09:12:55;16.43;;;11.60;;
1837;SDS011;918;50.796;6.772;2024-01-06T09:15:21;13.80;;;10.17;;
1837;SDS011;918;50.796;6.772;2024-01-06T09:17:47;10.97;;;8.83;;
1837;SDS011;918;50.796;6.772;2024-01-06T09:20:13;13.33;;;10.33;;
1837;SDS011;918;50.796;6.772;2024-01-06T09:22:38;14.40;;;10.10;;
1837;SDS011;918;50.796;6.772;2024-01-06T09:25:03;11.47;;;9.33;;
1837;SDS011;918;50.796;6.772;2024-01-06T09:27:29;14.67;;;10.63;;
1837;SDS011;918;50.796;6.772;2024-01-06T09:29:54;15.13;;;10.57;;
1837;SDS011;918;50.796;6.772;2024-01-06T09:32:20;12.43;;;9.80;;
1837;SDS011;918;50.796;6.772;2024-01-06T09:34:47;13.43;;;10.03;;
1837;SDS011;918;50.796;6.772;2024-01-06T09:37:13;11.77;;;9.63;;
1837;SDS011;918;50.796;6.772;2024-01-06T09:39:39;11.93;;;8.83;;
1837;SDS011;918;50.796;6.772;2024-01-06T09:42:04;11.17;;;8.80;;
1837;SDS011;918;50.796;6.772;2024-01-06T09:44:30;12.37;;;9.00;;
1837;SDS011;918;50.796;6.772;2024-01-06T09:46:55;11.47;;;9.03;;
1837;SDS011;918;50.796;6.772;2024-01-06T09:49:24;10.67;;;8.63;;
1837;SDS011;918;50.796;6.772;2024-01-06T09:51:50;10.20;;;8.40;;
1837;SDS011;918;50.796;6.772;2024-01-06T09:54:19;15.40;;;9.23;;
1837;SDS011;918;50.796;6.772;2024-01-06T09:56:47;12.27;;;8.93;;
1837;SDS011;918;50.796;6.772;2024-01-06T09:59:13;13.00;;;9.50;;
1837;SDS011;918;50.796;6.772;2024-01-06T10:01:39;10.90;;;8.50;;
1837;SDS011;918;50.796;6.772;2024-01-06T10:04:04;11.90;;;8.90;;
1837;SDS011;918;50.796;6.772;2024-01-06T10:06:30;12.20;;;8.90;;
1837;SDS011;918;50.796;6.772;2024-01-06T10:08:55;12.13;;;8.90;;
1837;SDS011;918;50.796;6.772;2024-01-06T10:11:21;10.23;;;8.07;;
1837;SDS011;918;50.796;6.772;2024-01-06T10:13:50;10.80;;;8.60;;
1837;SDS011;918;50.796;6.772;2024-01-06T10:16:16;12.10;;;8.50;;
1837;SDS011;918;50.796;6.772;2024-01-06T10:18:42;11.00;;;8.40;;
1837;SDS011;918;50.796;6.772;2024-01-06T10:21:09;12.03;;;10.13;;
1837;SDS011;918;50.796;6.772;2024-01-06T10:23:34;8.80;;;7.80;;
1837;SDS011;918;50.796;6.772;2024-01-06T10:26:01;9.57;;;8.17;;
1837;SDS011;918;50.796;6.772;2024-01-06T10:28:27;8.67;;;7.77;;
1837;SDS011;918;50.796;6.772;2024-01-06T10:30:56;10.17;;;8.77;;
1837;SDS011;918;50.796;6.772;2024-01-06T10:33:22;10.97;;;8.77;;
1837;SDS011;918;50.796;6.772;2024-01-06T10:35:48;13.53;;;9.53;;
1837;SDS011;918;50.796;6.772;2024-01-06T10:38:14;10.77;;;8.73;;
1837;SDS011;918;50.796;6.772;2024-01-06T10:40:41;11.50;;;9.47;;
1837;SDS011;918;50.796;6.772;2024-01-06T10:43:21;10.20;;;9.20;;
1837;SDS011;918;50.796;6.772;2024-01-06T10:45:47;11.30;;;9.10;;
1837;SDS011;918;50.796;6.772;2024-01-06T10:48:12;10.93;;;8.50;;
1837;SDS011;918;50.796;6.772;2024-01-06T10:50:38;11.07;;;8.80;;
1837;SDS011;918;50.796;6.772;2024-01-06T10:53:03;11.07;;;9.27;;
1837;SDS011;918;50.796;6.772;2024-01-06T10:55:29;9.40;;;8.33;;
1837;SDS011;918;50.796;6.772;2024-01-06T10:57:54;10.13;;;8.30;;
1837;SDS011;918;50.796;6.772;2024-01-06T11:00:20;9.83;;;8.30;;
1837;SDS011;918;50.796;6.772;2024-01-06T11:02:46;10.13;;;7.77;;
1837;SDS011;918;50.796;6.772;2024-01-06T11:05:13;9.50;;;8.37;;
1837;SDS011;918;50.796;6.772;2024-01-06T11:07:38;10.40;;;8.20;;
1837;SDS011;918;50.796;6.772;2024-01-06T11:10:06;10.43;;;8.97;;
1837;SDS011;918;50.796;6.772;2024-01-06T11:12:36;9.47;;;8.13;;
1837;SDS011;918;50.796;6.772;2024-01-06T11:15:01;11.80;;;8.60;;
1837;SDS011;918;50.796;6.772;2024-01-06T11:20:20;9.50;;;7.10;;
1837;SDS011;918;50.796;6.772;2024-01-06T11:22:47;9.30;;;8.30;;
1837;SDS011;918;50.796;6.772;2024-01-06T11:25:13;10.57;;;8.73;;
1837;SDS011;918;50.796;6.772;2024-01-06T11:27:40;11.23;;;9.27;;
1837;SDS011;918;50.796;6.772;2024-01-06T11:30:07;10.47;;;8.70;;
1837;SDS011;918;50.796;6.772;2024-01-06T11:32:33;11.30;;;9.17;;
1837;SDS011;918;50.796;6.772;2024-01-06T11:35:07;11.43;;;10.00;;
1837;SDS011;918;50.796;6.772;2024-01-06T11:40:26;13.07;;;9.30;;
1837;SDS011;918;50.796;6.772;2024-01-06T11:43:07;12.27;;;9.60;;
1837;SDS011;918;50.796;6.772;2024-01-06T11:45:38;11.07;;;9.17;;
1837;SDS011;918;50.796;6.772;2024-01-06T11:48:05;12.13;;;9.20;;
1837;SDS011;918;50.796;6.772;2024-01-06T11:50:33;11.43;;;9.47;;
1837;SDS011;918;50.796;6.772;2024-01-06T11:52:59;14.30;;;10.97;;
1837;SDS011;918;50.796;6.772;2024-01-06T11:55:25;12.50;;;10.30;;
1837;SDS011;918;50.796;6.772;2024-01-06T11:57:53;12.57;;;10.43;;
1837;SDS011;918;50.796;6.772;2024-01-06T12:00:19;11.70;;;9.87;;
1837;SDS011;918;50.796;6.772;2024-01-06T12:02:44;12.00;;;10.70;;
1837;SDS011;918;50.796;6.772;2024-01-06T12:05:14;10.07;;;9.07;;
1837;SDS011;918;50.796;6.772;2024-01-06T12:07:40;12.10;;;10.10;;
1837;SDS011;918;50.796;6.772;2024-01-06T12:10:07;14.93;;;12.17;;
1837;SDS011;918;50.796;6.772;2024-01-06T12:12:33;11.60;;;9.97;;
1837;SDS011;918;50.796;6.772;2024-01-06T12:14:59;13.13;;;10.00;;
1837;SDS011;918;50.796;6.772;2024-01-06T12:17:24;13.60;;;9.53;;
1837;SDS011;918;50.796;6.772;2024-01-06T12:19:53;9.97;;;8.80;;
1837;SDS011;918;50.796;6.772;2024-01-06T12:22:19;10.07;;;8.97;;
1837;SDS011;918;50.796;6.772;2024-01-06T12:24:44;13.67;;;10.47;;
1837;SDS011;918;50.796;6.772;2024-01-06T12:27:09;11.93;;;10.63;;
1837;SDS011;918;50.796;6.772;2024-01-06T12:29:37;12.40;;;9.40;;
1837;SDS011;918;50.796;6.772;2024-01-06T12:32:06;9.90;;;8.90;;
1837;SDS011;918;50.796;6.772;2024-01-06T12:34:31;12.00;;;9.57;;
1837;SDS011;918;50.796;6.772;2024-01-06T12:36:57;13.10;;;10.30;;
1837;SDS011;918;50.796;6.772;2024-01-06T12:39:23;12.33;;;10.20;;
1837;SDS011;918;50.796;6.772;2024-01-06T12:41:52;11.23;;;9.30;;
1837;SDS011;918;50.796;6.772;2024-01-06T12:44:17;11.23;;;9.20;;
1837;SDS011;918;50.796;6.772;2024-01-06T12:46:42;10.83;;;8.10;;
1837;SDS011;918;50.796;6.772;2024-01-06T12:49:08;10.43;;;9.33;;
1837;SDS011;918;50.796;6.772;2024-01-06T12:51:33;9.87;;;8.80;;
1837;SDS011;918;50.796;6.772;2024-01-06T12:53:58;10.73;;;9.17;;
1837;SDS011;918;50.796;6.772;2024-01-06T12:56:24;9.60;;;8.60;;
1837;SDS011;918;50.796;6.772;2024-01-06T12:58:49;9.20;;;7.93;;
1837;SDS011;918;50.796;6.772;2024-01-06T13:01:14;10.53;;;9.33;;
1837;SDS011;918;50.796;6.772;2024-01-06T13:03:40;8.83;;;7.20;;
1837;SDS011;918;50.796;6.772;2024-01-06T13:06:05;11.40;;;9.10;;
1837;SDS011;918;50.796;6.772;2024-01-06T13:08:30;9.60;;;8.60;;
1837;SDS011;918;50.796;6.772;2024-01-06T13:10:56;10.47;;;7.90;;
1837;SDS011;918;50.796;6.772;2024-01-06T13:13:21;10.23;;;8.90;;
1837;SDS011;918;50.796;6.772;2024-01-06T13:15:46;9.10;;;7.83;;
1837;SDS011;918;50.796;6.772;2024-01-06T13:18:12;11.60;;;9.33;;
1837;SDS011;918;50.796;6.772;2024-01-06T13:20:38;11.33;;;9.17;;
1837;SDS011;918;50.796;6.772;2024-01-06T13:23:05;10.73;;;8.63;;
1837;SDS011;918;50.796;6.772;2024-01-06T13:25:31;11.10;;;9.30;;
1837;SDS011;918;50.796;6.772;2024-01-06T13:27:57;12.23;;;9.73;;
1837;SDS011;918;50.796;6.772;2024-01-06T13:30:22;13.60;;;9.47;;
1837;SDS011;918;50.796;6.772;2024-01-06T13:32:48;19.13;;;11.03;;
1837;SDS011;918;50.796;6.772;2024-01-06T13:35:15;16.30;;;11.13;;
1837;SDS011;918;50.796;6.772;2024-01-06T13:37:41;17.63;;;12.80;;
1837;SDS011;918;50.796;6.772;2024-01-06T13:40:07;14.80;;;11.03;;
1837;SDS011;918;50.796;6.772;2024-01-06T13:42:33;13.60;;;10.13;;
1837;SDS011;918;50.796;6.772;2024-01-06T13:44:59;12.57;;;10.10;;
1837;SDS011;918;50.796;6.772;2024-01-06T13:47:28;11.97;;;10.70;;
1837;SDS011;918;50.796;6.772;2024-01-06T13:49:53;14.03;;;10.60;;
1837;SDS011;918;50.796;6.772;2024-01-06T13:52:20;11.80;;;10.13;;
1837;SDS011;918;50.796;6.772;2024-01-06T13:54:45;14.20;;;10.10;;
1837;SDS011;918;50.796;6.772;2024-01-06T13:57:10;13.77;;;9.80;;
1837;SDS011;918;50.796;6.772;2024-01-06T13:59:35;12.13;;;9.97;;
1837;SDS011;918;50.796;6.772;2024-01-06T14:02:03;14.00;;;10.07;;
1837;SDS011;918;50.796;6.772;2024-01-06T14:04:28;14.40;;;10.17;;
1837;SDS011;918;50.796;6.772;2024-01-06T14:06:54;15.47;;;11.70;;
1837;SDS011;918;50.796;6.772;2024-01-06T14:09:22;17.90;;;11.43;;
1837;SDS011;918;50.796;6.772;2024-01-06T14:11:48;19.47;;;12.60;;
1837;SDS011;918;50.796;6.772;2024-01-06T14:14:13;14.97;;;11.07;;
1837;SDS011;918;50.796;6.772;2024-01-06T14:16:38;15.93;;;11.00;;
1837;SDS011;918;50.796;6.772;2024-01-06T14:19:03;15.23;;;9.83;;
1837;SDS011;918;50.796;6.772;2024-01-06T14:21:29;14.93;;;9.77;;
1837;SDS011;918;50.796;6.772;2024-01-06T14:23:54;15.10;;;10.43;;
1837;SDS011;918;50.796;6.772;2024-01-06T14:26:19;16.70;;;10.00;;
1837;SDS011;918;50.796;6.772;2024-01-06T14:28:45;13.30;;;9.73;;
1837;SDS011;918;50.796;6.772;2024-01-06T14:31:11;13.30;;;10.10;;
1837;SDS011;918;50.796;6.772;2024-01-06T14:33:36;13.53;;;10.50;;
1837;SDS011;918;50.796;6.772;2024-01-06T14:36:02;14.40;;;9.47;;
1837;SDS011;918;50.796;6.772;2024-01-06T14:38:28;13.07;;;9.70;;
1837;SDS011;918;50.796;6.772;2024-01-06T14:40:53;17.00;;;11.33;;
1837;SDS011;918;50.796;6.772;2024-01-06T14:43:18;10.40;;;9.30;;
1837;SDS011;918;50.796;6.772;2024-01-06T14:45:45;14.40;;;11.40;;
1837;SDS011;918;50.796;6.772;2024-01-06T14:48:11;12.10;;;9.83;;
1837;SDS011;918;50.796;6.772;2024-01-06T14:50:36;12.43;;;10.00;;
1837;SDS011;918;50.796;6.772;2024-01-06T14:53:01;10.00;;;8.50;;
1837;SDS011;918;50.796;6.772;2024-01-06T14:55:27;13.50;;;10.27;;
1837;SDS011;918;50.796;6.772;2024-01-06T14:57:53;10.60;;;9.00;;
1837;SDS011;918;50.796;6.772;2024-01-06T15:00:18;13.57;;;10.27;;
1837;SDS011;918;50.796;6.772;2024-01-06T15:02:43;12.87;;;10.43;;
1837;SDS011;918;50.796;6.772;2024-01-06T15:05:11;12.53;;;10.90;;
1837;SDS011;918;50.796;6.772;2024-01-06T15:07:36;17.43;;;12.47;;
1837;SDS011;918;50.796;6.772;2024-01-06T15:10:02;16.80;;;12.00;;